Time;durP1;ratioP1;P1;durP2;ratioP2;P2;SDS_P1;SDS_P2;PMS_P1;PMS_P2;Temp;Humidity;BMP_temperature;BMP_pressure;BME280_temperature;BME280_humidity;BME280_pressure;Samples;Min_cycle;Max_cycle;Signal;HPM_P1;HPM_P2
2022/01/28 00:00:16;;;;;;;28.00;4.53;;;5.00;99.90;;;;;;4967240;28;20204;-60
2022/01/28 00:03:02;;;;;;;20.77;3.60;;;4.90;99.90;;;;;;4947652;28;20213;-60
2022/01/28 00:05:29;;;;;;;19.20;3.07;;;4.90;99.90;;;;;;4967010;28;20243;-60
2022/01/28 00:07:57;;;;;;;16.93;3.87;;;4.90;99.90;;;;;;4958287;28;20239;-60
2022/01/28 00:10:27;;;;;;;24.97;5.00;;;5.00;99.90;;;;;;4961015;28;20207;-60
2022/01/28 00:15:48;;;;;;;24.07;3.53;;;5.10;99.90;;;;;;4959709;28;20211;-60
2022/01/28 00:18:43;;;;;;;20.87;3.60;;;5.10;99.90;;;;;;4960676;28;20207;-60
2022/01/28 00:38:03;;;;;;;19.47;3.30;;;5.30;99.90;;;;;;4961111;28;20214;-60
2022/01/28 00:40:32;;;;;;;20.23;3.63;;;5.20;99.90;;;;;;4961454;28;20212;-60
2022/01/28 00:43:00;;;;;;;16.13;3.10;;;5.10;99.90;;;;;;4959899;28;20235;-60
2022/01/28 00:45:27;;;;;;;20.07;3.37;;;5.10;99.90;;;;;;4931957;28;20797;-60
2022/01/28 00:47:55;;;;;;;9.60;2.83;;;5.10;99.90;;;;;;4972445;28;20215;-60
2022/01/28 00:50:23;;;;;;;25.63;3.53;;;5.10;99.90;;;;;;4947268;28;20214;-60
2022/01/28 00:52:51;;;;;;;16.53;3.90;;;5.10;99.90;;;;;;4958862;28;20232;-60
2022/01/28 00:55:18;;;;;;;16.03;3.60;;;5.20;99.90;;;;;;4950373;28;20663;-60
2022/01/28 00:57:45;;;;;;;18.97;3.67;;;5.20;99.90;;;;;;4953619;28;20212;-60
2022/01/28 01:00:14;;;;;;;22.30;3.40;;;5.20;99.90;;;;;;4949832;28;20620;-60
2022/01/28 01:02:41;;;;;;;25.00;4.33;;;5.20;99.90;;;;;;4949486;28;20566;-60
2022/01/28 01:05:09;;;;;;;17.73;3.70;;;5.20;99.90;;;;;;4957259;28;20235;-60
2022/01/28 01:07:38;;;;;;;20.03;3.33;;;5.30;99.90;;;;;;4947497;28;20968;-60
2022/01/28 01:10:07;;;;;;;21.00;3.70;;;5.30;99.90;;;;;;4970056;28;20822;-60
2022/01/28 01:12:38;;;;;;;15.87;3.43;;;5.30;99.90;;;;;;4956340;28;20368;-60
2022/01/28 01:15:07;;;;;;;21.23;4.03;;;5.30;99.90;;;;;;4963043;28;20215;-60
2022/01/28 01:17:37;;;;;;;25.33;3.80;;;5.30;99.90;;;;;;4955633;28;20205;-60
2022/01/28 01:23:04;;;;;;;21.87;4.10;;;5.30;99.90;;;;;;4988161;28;20215;-60
2022/01/28 01:25:37;;;;;;;15.87;3.80;;;5.30;99.90;;;;;;4956666;28;20231;-60
2022/01/28 01:28:05;;;;;;;14.43;2.50;;;5.30;99.90;;;;;;4957959;28;20207;-60
2022/01/28 01:30:38;;;;;;;19.30;3.50;;;5.30;99.90;;;;;;4946726;28;20211;-60
2022/01/28 01:33:05;;;;;;;17.17;2.87;;;5.30;99.90;;;;;;4951993;28;20677;-60
2022/01/28 01:35:33;;;;;;;16.53;3.40;;;5.30;99.90;;;;;;4952797;28;20769;-60
2022/01/28 01:38:01;;;;;;;22.20;3.67;;;5.40;99.90;;;;;;4972468;28;20560;-60
2022/01/28 01:40:33;;;;;;;16.87;4.27;;;5.30;99.90;;;;;;4943534;28;20314;-60
2022/01/28 01:43:10;;;;;;;14.50;3.13;;;5.40;99.90;;;;;;4959485;28;20747;-60
2022/01/28 01:53:55;;;;;;;15.83;2.70;;;5.50;99.90;;;;;;4967865;28;20252;-60
2022/01/28 01:56:22;;;;;;;21.10;3.07;;;5.50;99.90;;;;;;4961305;28;20794;-60
2022/01/28 01:58:49;;;;;;;12.33;2.40;;;5.50;99.90;;;;;;4956665;28;20212;-60
2022/01/28 02:01:16;;;;;;;17.67;3.50;;;5.50;99.90;;;;;;4955836;28;20957;-60
2022/01/28 02:03:43;;;;;;;16.83;3.30;;;5.40;99.90;;;;;;4954125;28;20229;-60
2022/01/28 02:06:11;;;;;;;17.87;3.40;;;5.50;99.90;;;;;;4952546;28;20199;-60
2022/01/28 02:08:38;;;;;;;9.67;2.60;;;5.50;99.90;;;;;;4974529;28;20203;-60
2022/01/28 02:11:07;;;;;;;17.77;3.33;;;5.40;99.90;;;;;;4943623;28;21046;-60
2022/01/28 02:13:37;;;;;;;9.37;2.90;;;5.30;99.90;;;;;;4960861;28;20314;-60
2022/01/28 02:16:05;;;;;;;10.17;2.43;;;5.40;99.90;;;;;;4954733;28;20281;-60
2022/01/28 02:18:32;;;;;;;19.80;3.33;;;5.40;99.90;;;;;;4950719;28;20204;-60
2022/01/28 02:21:08;;;;;;;17.90;3.27;;;5.30;99.90;;;;;;4965871;28;20297;-60
2022/01/28 02:23:36;;;;;;;15.53;3.03;;;5.30;99.90;;;;;;4956943;28;20234;-60
2022/01/28 02:26:04;;;;;;;14.33;4.03;;;5.30;99.90;;;;;;4959460;28;20235;-60
2022/01/28 02:28:35;;;;;;;18.53;3.40;;;5.30;99.90;;;;;;4961302;28;20677;-60
2022/01/28 02:31:02;;;;;;;11.27;3.13;;;5.20;99.90;;;;;;4950978;28;20297;-60
2022/01/28 02:33:30;;;;;;;14.80;3.47;;;5.20;99.90;;;;;;4955955;28;20626;-60
2022/01/28 02:36:03;;;;;;;23.43;3.90;;;5.20;99.90;;;;;;4954511;28;20210;-60
2022/01/28 02:38:32;;;;;;;19.77;3.03;;;5.20;99.90;;;;;;4962261;28;23085;-60
2022/01/28 02:41:01;;;;;;;11.90;2.30;;;5.30;99.90;;;;;;4954851;28;20253;-60
2022/01/28 02:43:37;;;;;;;21.60;3.20;;;5.30;99.90;;;;;;4963896;28;20235;-60
2022/01/28 02:46:07;;;;;;;10.77;2.87;;;5.30;99.90;;;;;;4976233;28;20231;-60
2022/01/28 02:48:36;;;;;;;23.37;3.60;;;5.20;99.90;;;;;;4957954;28;20585;-61
2022/01/28 02:51:10;;;;;;;12.73;2.77;;;5.20;99.90;;;;;;4955772;28;20247;-60
2022/01/28 02:53:45;;;;;;;16.17;3.30;;;5.20;99.90;;;;;;4973783;28;20207;-60
2022/01/28 02:56:16;;;;;;;11.27;2.80;;;5.20;99.90;;;;;;4962930;28;20322;-60
2022/01/28 02:58:44;;;;;;;22.30;3.50;;;5.20;99.90;;;;;;4962142;28;20231;-60
2022/01/28 03:01:14;;;;;;;17.53;3.23;;;5.20;99.90;;;;;;4940854;28;20210;-60
2022/01/28 03:03:42;;;;;;;11.93;1.90;;;5.20;99.90;;;;;;4964863;28;20253;-60
2022/01/28 03:06:10;;;;;;;16.57;3.63;;;5.30;99.90;;;;;;4939485;28;20231;-60
2022/01/28 03:08:42;;;;;;;15.57;2.90;;;5.40;99.90;;;;;;4975484;28;20208;-60
2022/01/28 03:14:02;;;;;;;10.53;2.63;;;5.40;99.90;;;;;;4941949;28;20680;-60
2022/01/28 03:16:33;;;;;;;14.20;3.70;;;5.30;99.90;;;;;;4959490;28;20204;-60
2022/01/28 03:22:25;;;;;;;12.90;4.17;;;5.30;99.90;;;;;;4952813;28;20241;-61
2022/01/28 03:24:53;;;;;;;9.93;2.50;;;5.30;99.90;;;;;;4958381;28;20227;-60
2022/01/28 03:27:41;;;;;;;10.17;3.00;;;5.30;99.90;;;;;;4961243;28;20214;-60
2022/01/28 03:30:09;;;;;;;20.03;3.60;;;5.30;99.90;;;;;;4959012;28;20207;-60
2022/01/28 03:32:36;;;;;;;20.30;3.30;;;5.40;99.90;;;;;;4957321;28;20208;-60
2022/01/28 03:35:04;;;;;;;20.17;3.90;;;5.40;99.90;;;;;;4956858;28;20247;-60
2022/01/28 03:37:32;;;;;;;19.63;2.77;;;5.50;99.90;;;;;;4952279;28;20238;-60
2022/01/28 03:40:02;;;;;;;10.23;3.30;;;5.50;99.90;;;;;;4963605;28;20211;-60
2022/01/28 03:42:29;;;;;;;10.10;2.50;;;5.50;99.90;;;;;;4942155;28;23772;-60
2022/01/28 03:44:56;;;;;;;21.17;3.60;;;5.50;99.90;;;;;;4962461;28;20251;-60
2022/01/28 03:47:23;;;;;;;17.97;3.00;;;5.50;99.90;;;;;;4954514;28;20207;-60
2022/01/28 03:49:50;;;;;;;12.50;2.77;;;5.50;99.90;;;;;;4969535;28;20211;-60
2022/01/28 03:52:17;;;;;;;12.60;3.43;;;5.50;99.90;;;;;;4965398;28;20218;-60
2022/01/28 03:54:44;;;;;;;13.53;2.03;;;5.40;99.90;;;;;;4955681;28;20704;-60
2022/01/28 03:57:12;;;;;;;8.37;2.47;;;5.40;99.90;;;;;;4963713;28;20211;-60
2022/01/28 03:59:39;;;;;;;12.10;2.23;;;5.30;99.90;;;;;;4968010;28;20316;-60
2022/01/28 04:02:07;;;;;;;13.07;2.27;;;5.10;99.90;;;;;;4973487;28;20199;-59
2022/01/28 04:12:51;;;;;;;7.47;2.07;;;4.90;99.90;;;;;;4958170;28;20671;-60
2022/01/28 04:15:34;;;;;;;15.13;1.90;;;4.90;99.90;;;;;;4959468;28;20207;-60
2022/01/28 04:18:02;;;;;;;15.80;1.97;;;5.00;99.90;;;;;;4953520;28;20214;-60
2022/01/28 04:20:30;;;;;;;10.37;2.07;;;5.00;99.90;;;;;;4952935;28;20453;-60
2022/01/28 04:22:57;;;;;;;9.20;1.97;;;5.00;99.90;;;;;;4975708;28;20264;-60
2022/01/28 04:25:24;;;;;;;11.33;2.20;;;5.10;99.90;;;;;;4935706;28;20233;-60
2022/01/28 04:27:52;;;;;;;6.33;1.83;;;5.00;99.90;;;;;;4968650;28;20199;-60
2022/01/28 04:30:19;;;;;;;16.30;2.67;;;5.00;99.90;;;;;;4961188;28;20200;-60
2022/01/28 04:32:49;;;;;;;13.30;1.83;;;5.00;99.90;;;;;;4957262;28;20212;-60
2022/01/28 04:35:16;;;;;;;10.23;2.00;;;5.10;99.90;;;;;;4950985;28;20211;-59
2022/01/28 04:37:51;;;;;;;10.97;2.50;;;5.00;99.90;;;;;;4959413;28;20215;-60
2022/01/28 04:40:21;;;;;;;15.53;2.73;;;4.90;99.90;;;;;;4946938;28;20219;-60
2022/01/28 04:43:01;;;;;;;14.40;1.97;;;4.70;99.90;;;;;;4967483;28;20200;-60
2022/01/28 04:45:37;;;;;;;9.30;2.20;;;4.60;99.90;;;;;;4960783;28;20231;-60
2022/01/28 04:48:14;;;;;;;8.53;2.17;;;4.60;99.90;;;;;;4956671;28;20211;-60
2022/01/28 04:50:51;;;;;;;13.07;2.90;;;4.50;99.90;;;;;;4944992;28;20216;-60
2022/01/28 04:53:38;;;;;;;12.77;2.50;;;4.50;99.90;;;;;;4970644;28;20224;-60
2022/01/28 04:56:17;;;;;;;7.70;2.17;;;4.50;99.90;;;;;;4921424;28;20222;-60
2022/01/28 04:58:56;;;;;;;9.53;2.40;;;4.40;99.90;;;;;;4960850;28;20221;-60
2022/01/28 05:01:52;;;;;;;16.10;2.20;;;4.40;99.90;;;;;;4938325;28;20648;-60
2022/01/28 05:15:44;;;;;;;15.60;4.00;;;4.80;99.90;;;;;;4959695;28;20266;-60
2022/01/28 05:24:09;;;;;;;29.17;3.40;;;4.70;99.90;;;;;;4958870;28;20221;-59
2022/01/28 05:26:40;;;;;;;18.13;2.97;;;4.80;99.90;;;;;;4932677;28;20238;-60
2022/01/28 05:29:07;;;;;;;15.77;3.03;;;4.80;99.90;;;;;;4940198;23;20322;-61
2022/01/28 05:31:34;;;;;;;17.93;3.13;;;4.90;99.90;;;;;;4916934;28;20249;-60
2022/01/28 05:34:03;;;;;;;21.10;3.43;;;4.90;99.90;;;;;;4929331;28;20310;-59
2022/01/28 05:36:34;;;;;;;21.07;3.63;;;5.00;99.90;;;;;;4936238;28;20209;-59
2022/01/28 05:39:04;;;;;;;22.90;4.17;;;5.00;99.90;;;;;;4935068;28;20551;-60
2022/01/28 05:41:32;;;;;;;16.77;3.83;;;5.00;99.90;;;;;;4922075;28;20216;-59
2022/01/28 05:44:00;;;;;;;14.87;3.07;;;5.00;99.90;;;;;;4924592;28;22788;-59
2022/01/28 05:46:28;;;;;;;30.67;4.27;;;5.00;99.90;;;;;;4934438;28;20725;-59
2022/01/28 05:48:56;;;;;;;16.03;3.03;;;5.00;99.90;;;;;;4910021;28;20656;-59
2022/01/28 05:51:25;;;;;;;20.90;4.47;;;5.10;99.90;;;;;;4940139;28;20216;-59
2022/01/28 05:53:53;;;;;;;24.87;4.27;;;5.20;99.90;;;;;;4913422;28;20240;-59
2022/01/28 05:56:21;;;;;;;24.03;3.70;;;5.30;99.90;;;;;;4924859;28;20235;-59
2022/01/28 05:58:48;;;;;;;21.40;3.73;;;5.40;99.90;;;;;;4904572;28;20233;-59
2022/01/28 06:01:15;;;;;;;23.53;4.27;;;5.40;99.90;;;;;;4930926;28;20728;-59
2022/01/28 06:03:44;;;;;;;25.60;4.00;;;5.40;99.90;;;;;;4936475;28;20227;-59
2022/01/28 06:06:18;;;;;;;16.50;3.63;;;5.40;99.90;;;;;;4931328;28;20653;-59
2022/01/28 06:08:46;;;;;;;21.00;3.77;;;5.40;99.90;;;;;;4937665;28;20235;-59
2022/01/28 06:11:14;;;;;;;17.37;4.67;;;5.50;99.90;;;;;;4954191;28;20230;-59
2022/01/28 06:13:41;;;;;;;14.53;3.87;;;5.50;99.90;;;;;;4904040;28;21053;-59
2022/01/28 06:16:09;;;;;;;18.00;3.60;;;5.50;99.90;;;;;;4939304;28;20831;-59
2022/01/28 06:18:36;;;;;;;18.80;3.60;;;5.40;99.90;;;;;;4923093;28;20736;-59
2022/01/28 06:21:03;;;;;;;16.90;2.97;;;5.40;99.90;;;;;;4918464;28;20252;-58
2022/01/28 06:23:31;;;;;;;12.63;2.93;;;5.40;99.90;;;;;;4926245;28;20313;-59
2022/01/28 06:25:59;;;;;;;13.93;3.27;;;5.40;99.90;;;;;;4927797;28;20375;-59
2022/01/28 06:28:26;;;;;;;19.03;3.77;;;5.40;99.90;;;;;;4929500;28;20255;-59
2022/01/28 06:30:54;;;;;;;19.13;2.93;;;5.40;99.90;;;;;;4922124;28;20290;-59
2022/01/28 06:33:22;;;;;;;15.80;3.80;;;5.40;99.90;;;;;;4926318;28;20219;-59
2022/01/28 06:35:49;;;;;;;20.80;3.37;;;5.40;99.90;;;;;;4941383;28;20231;-59
2022/01/28 06:38:17;;;;;;;20.60;3.60;;;5.40;99.90;;;;;;4939199;28;20275;-59
2022/01/28 06:40:45;;;;;;;19.50;3.40;;;5.40;99.90;;;;;;4952941;28;20314;-59
2022/01/28 06:43:14;;;;;;;17.30;3.40;;;5.40;99.90;;;;;;4945515;28;20296;-59
2022/01/28 06:45:43;;;;;;;15.70;3.03;;;5.40;99.90;;;;;;4929244;28;20293;-59
2022/01/28 06:48:11;;;;;;;26.50;3.60;;;5.40;99.90;;;;;;4946687;28;20239;-59
2022/01/28 06:50:38;;;;;;;16.13;3.77;;;5.40;99.90;;;;;;4927568;28;20335;-59
2022/01/28 06:53:07;;;;;;;21.53;3.90;;;5.40;99.90;;;;;;4965467;28;20204;-59
2022/01/28 06:55:34;;;;;;;17.57;3.70;;;5.30;99.90;;;;;;4926410;28;20712;-59
2022/01/28 06:58:01;;;;;;;20.87;4.00;;;5.30;99.90;;;;;;4947726;28;20204;-59
2022/01/28 07:00:35;;;;;;;14.33;2.77;;;5.30;99.90;;;;;;4915411;28;20319;-59
2022/01/28 07:03:05;;;;;;;19.47;3.47;;;5.30;99.90;;;;;;4945206;28;21388;-59
2022/01/28 07:05:32;;;;;;;14.50;2.87;;;5.40;99.90;;;;;;4933106;28;20235;-58
2022/01/28 07:07:59;;;;;;;17.80;3.27;;;5.40;99.90;;;;;;4954760;28;20296;-59
2022/01/28 07:10:27;;;;;;;13.73;2.23;;;5.50;99.90;;;;;;4927662;28;20297;-59
2022/01/28 07:12:54;;;;;;;11.23;2.77;;;5.60;99.90;;;;;;4940896;28;20878;-59
2022/01/28 07:15:24;;;;;;;11.27;3.00;;;5.60;99.90;;;;;;4922466;28;20222;-59
2022/01/28 07:17:53;;;;;;;15.67;3.47;;;5.60;99.90;;;;;;4950650;28;20307;-59
2022/01/28 07:20:20;;;;;;;14.10;2.27;;;5.60;99.90;;;;;;4941643;28;20294;-59
2022/01/28 07:22:47;;;;;;;13.97;2.77;;;5.60;99.90;;;;;;4952770;28;20305;-59
2022/01/28 07:25:14;;;;;;;16.77;3.57;;;5.60;99.90;;;;;;4937255;28;20257;-59
2022/01/28 07:27:41;;;;;;;19.13;3.40;;;5.60;99.90;;;;;;4954485;28;20606;-59
2022/01/28 07:30:10;;;;;;;12.53;2.97;;;5.60;99.90;;;;;;4942142;28;20322;-59
2022/01/28 07:32:37;;;;;;;18.80;2.70;;;5.50;99.90;;;;;;4928790;28;21186;-59
2022/01/28 07:35:06;;;;;;;11.33;3.70;;;5.50;99.90;;;;;;4936811;28;20204;-59
2022/01/28 07:37:33;;;;;;;16.53;2.97;;;5.60;99.90;;;;;;4952277;28;20204;-59
2022/01/28 07:40:02;;;;;;;12.93;3.03;;;5.60;99.90;;;;;;4953182;28;20201;-59
2022/01/28 07:42:33;;;;;;;20.97;3.63;;;5.60;99.90;;;;;;4939287;28;20269;-59
2022/01/28 07:45:00;;;;;;;18.13;3.23;;;5.60;99.90;;;;;;4943574;28;20229;-59
2022/01/28 07:47:27;;;;;;;16.70;2.83;;;5.60;99.90;;;;;;4933880;28;20236;-60
2022/01/28 07:49:54;;;;;;;18.17;3.63;;;5.60;99.90;;;;;;4943848;28;20197;-59
2022/01/28 07:52:22;;;;;;;16.93;3.30;;;5.60;99.90;;;;;;4946907;28;20324;-59
2022/01/28 07:54:50;;;;;;;21.67;3.20;;;5.60;99.90;;;;;;4949209;28;20243;-60
2022/01/28 07:57:17;;;;;;;20.03;4.07;;;5.60;99.90;;;;;;4941684;28;20659;-61
2022/01/28 07:59:44;;;;;;;24.90;3.97;;;5.60;99.90;;;;;;4949179;28;20770;-59
2022/01/28 08:02:11;;;;;;;17.57;3.60;;;5.60;99.90;;;;;;4920018;28;20341;-59
2022/01/28 08:04:42;;;;;;;22.87;4.67;;;5.70;99.90;;;;;;4950925;28;20205;-59
2022/01/28 08:07:09;;;;;;;19.20;3.30;;;5.60;99.90;;;;;;4927755;28;20255;-60
2022/01/28 08:09:37;;;;;;;17.07;4.10;;;5.60;99.90;;;;;;4955479;28;20212;-59
2022/01/28 08:12:05;;;;;;;13.53;2.60;;;5.60;99.90;;;;;;4939130;28;20216;-59
2022/01/28 08:14:32;;;;;;;17.83;3.17;;;5.70;99.90;;;;;;4951552;28;20216;-59
2022/01/28 08:17:02;;;;;;;17.70;3.80;;;5.60;99.90;;;;;;4928844;28;20679;-59
2022/01/28 08:19:29;;;;;;;17.87;3.83;;;5.60;99.90;;;;;;4934152;28;20221;-59
2022/01/28 08:21:56;;;;;;;27.83;4.03;;;5.60;99.90;;;;;;4918823;28;20204;-59
2022/01/28 08:24:23;;;;;;;22.73;3.57;;;5.60;99.90;;;;;;4943261;28;20295;-59
2022/01/28 08:26:51;;;;;;;8.43;2.83;;;5.70;99.90;;;;;;4936226;28;20313;-59
2022/01/28 08:29:18;;;;;;;18.30;4.33;;;5.60;99.90;;;;;;4936917;28;20213;-60
2022/01/28 08:31:45;;;;;;;15.30;2.90;;;5.60;99.90;;;;;;4938362;28;20216;-59
2022/01/28 08:34:13;;;;;;;22.77;3.53;;;5.70;99.90;;;;;;4935925;28;20223;-59
2022/01/28 08:36:40;;;;;;;19.10;4.13;;;5.70;99.90;;;;;;4947276;28;20205;-59
2022/01/28 08:39:09;;;;;;;20.40;3.30;;;5.70;99.90;;;;;;4945623;28;20293;-59
2022/01/28 08:41:39;;;;;;;13.90;3.40;;;5.80;99.90;;;;;;4943537;28;20212;-59
2022/01/28 08:44:07;;;;;;;20.77;3.67;;;5.80;99.90;;;;;;4951743;28;20200;-59
2022/01/28 08:46:34;;;;;;;16.37;2.80;;;5.80;99.90;;;;;;4978478;28;20226;-59
2022/01/28 08:49:03;;;;;;;20.13;2.97;;;5.70;99.90;;;;;;4928788;28;20208;-60
2022/01/28 08:51:31;;;;;;;17.43;3.40;;;5.70;99.90;;;;;;4963162;28;20315;-59
2022/01/28 08:53:58;;;;;;;14.93;3.33;;;5.70;99.90;;;;;;4947082;28;20209;-59
2022/01/28 08:56:25;;;;;;;22.97;3.47;;;5.70;99.90;;;;;;4970821;28;20753;-60
2022/01/28 08:58:52;;;;;;;18.77;4.00;;;5.70;99.90;;;;;;4941966;28;20585;-59
2022/01/28 09:01:20;;;;;;;22.80;3.37;;;5.70;99.90;;;;;;4955018;28;20607;-59
2022/01/28 09:03:49;;;;;;;24.37;3.73;;;5.70;99.90;;;;;;4934851;28;20298;-59
2022/01/28 09:06:16;;;;;;;19.17;3.77;;;5.70;99.90;;;;;;4928591;28;20922;-59
2022/01/28 09:08:44;;;;;;;13.13;3.33;;;5.70;99.90;;;;;;4942681;28;20237;-59
2022/01/28 09:11:33;;;;;;;12.77;3.13;;;5.80;99.90;;;;;;4940569;28;20748;-59
2022/01/28 09:14:00;;;;;;;14.50;3.07;;;5.80;99.90;;;;;;4942452;28;20257;-59
2022/01/28 09:16:28;;;;;;;14.63;2.90;;;5.90;99.90;;;;;;4950643;28;20289;-59
2022/01/28 09:18:55;;;;;;;16.73;2.97;;;5.90;99.90;;;;;;4958296;28;20662;-59
2022/01/28 09:21:23;;;;;;;19.07;3.00;;;6.00;99.90;;;;;;4931009;28;20207;-58
2022/01/28 09:23:50;;;;;;;12.30;2.40;;;6.00;99.90;;;;;;4949536;28;20196;-58
2022/01/28 09:26:17;;;;;;;15.67;3.17;;;5.90;99.90;;;;;;4949344;28;20227;-58
2022/01/28 09:28:44;;;;;;;16.50;2.93;;;5.90;99.90;;;;;;4940763;28;20237;-59
2022/01/28 09:31:11;;;;;;;8.83;2.10;;;5.80;99.90;;;;;;4938176;28;20327;-59
2022/01/28 09:33:39;;;;;;;10.07;2.57;;;5.80;99.90;;;;;;4934654;28;20303;-59
2022/01/28 09:36:07;;;;;;;11.80;2.60;;;5.80;99.90;;;;;;4934053;28;20223;-59
2022/01/28 09:38:34;;;;;;;9.43;2.17;;;5.70;99.90;;;;;;4953974;28;20211;-60
2022/01/28 09:41:03;;;;;;;9.17;2.27;;;5.70;99.90;;;;;;4936992;28;20208;-59
2022/01/28 09:43:30;;;;;;;12.67;2.33;;;5.70;99.90;;;;;;4941716;28;20228;-59
2022/01/28 09:45:57;;;;;;;10.33;2.27;;;5.70;99.90;;;;;;4934788;28;20205;-60
2022/01/28 09:48:25;;;;;;;12.23;2.83;;;5.80;99.90;;;;;;4946713;28;20285;-59
2022/01/28 09:50:54;;;;;;;19.20;3.23;;;5.80;99.90;;;;;;4941290;28;20214;-59
2022/01/28 09:53:21;;;;;;;13.27;1.97;;;5.90;99.90;;;;;;4933963;28;20280;-60
2022/01/28 09:55:50;;;;;;;12.23;2.40;;;5.90;99.90;;;;;;4942264;28;20205;-59
2022/01/28 09:58:17;;;;;;;14.10;3.27;;;6.00;99.90;;;;;;4926996;28;20204;-59
2022/01/28 10:00:44;;;;;;;19.47;3.43;;;6.10;99.90;;;;;;4935314;28;20214;-59
2022/01/28 10:03:13;;;;;;;16.73;2.57;;;6.10;99.90;;;;;;4922457;28;20570;-60
2022/01/28 10:05:42;;;;;;;15.00;2.87;;;6.20;99.90;;;;;;4927443;28;20716;-60
2022/01/28 10:08:13;;;;;;;14.87;2.67;;;6.30;99.90;;;;;;4914803;28;20232;-60
2022/01/28 10:11:01;;;;;;;22.83;3.00;;;6.30;99.90;;;;;;4940044;28;20204;-60
2022/01/28 10:13:34;;;;;;;23.50;2.90;;;6.20;99.90;;;;;;4922760;28;20212;-60
2022/01/28 10:16:12;;;;;;;14.83;2.97;;;6.20;99.90;;;;;;4945416;28;20225;-59
2022/01/28 10:18:46;;;;;;;11.43;3.10;;;6.20;99.90;;;;;;4934420;28;20646;-60
2022/01/28 10:21:31;;;;;;;18.60;3.13;;;6.10;99.90;;;;;;4934122;28;20669;-60
2022/01/28 10:24:15;;;;;;;23.37;4.03;;;6.10;99.90;;;;;;4929474;28;20204;-60
2022/01/28 10:26:45;;;;;;;20.67;3.70;;;6.10;99.90;;;;;;4935335;28;20338;-60
2022/01/28 10:29:15;;;;;;;16.63;2.77;;;6.10;99.90;;;;;;4937645;28;20215;-60
2022/01/28 10:31:45;;;;;;;19.80;3.60;;;6.10;99.90;;;;;;4963271;28;20677;-60
2022/01/28 10:34:27;;;;;;;18.97;3.70;;;6.20;99.90;;;;;;4946516;28;20392;-59
2022/01/28 10:37:11;;;;;;;12.67;2.73;;;6.20;99.90;;;;;;4957720;28;20695;-59
2022/01/28 10:39:46;;;;;;;18.17;3.10;;;6.20;99.90;;;;;;4929472;28;20273;-60
2022/01/28 10:42:15;;;;;;;14.37;2.50;;;6.30;99.90;;;;;;4934739;28;20270;-59
2022/01/28 10:44:57;;;;;;;13.47;2.73;;;6.30;99.90;;;;;;4941224;28;20302;-60
2022/01/28 10:47:39;;;;;;;15.73;3.13;;;6.30;99.90;;;;;;4961285;28;20693;-60
2022/01/28 10:50:22;;;;;;;15.67;2.87;;;6.30;99.90;;;;;;4954081;28;20692;-60
2022/01/28 10:52:59;;;;;;;15.90;3.13;;;6.30;99.90;;;;;;4919793;28;20254;-60
2022/01/28 10:55:29;;;;;;;23.33;3.63;;;6.30;99.90;;;;;;4933687;28;20219;-59
2022/01/28 10:57:58;;;;;;;17.57;3.30;;;6.30;99.90;;;;;;4929853;28;20228;-59
2022/01/28 11:00:29;;;;;;;13.00;3.23;;;6.40;99.90;;;;;;4942502;28;20211;-59
2022/01/28 11:02:59;;;;;;;15.53;3.17;;;6.30;99.90;;;;;;4946949;28;20212;-60
2022/01/28 11:05:27;;;;;;;19.83;3.37;;;6.30;99.90;;;;;;4948147;28;20214;-60
2022/01/28 11:07:55;;;;;;;14.43;3.23;;;6.30;99.90;;;;;;4938778;28;20260;-59
2022/01/28 11:10:22;;;;;;;19.53;3.47;;;6.30;99.90;;;;;;4934456;28;20220;-59
2022/01/28 11:12:52;;;;;;;16.03;3.63;;;6.20;99.90;;;;;;4952405;28;20306;-60
2022/01/28 11:15:21;;;;;;;18.10;3.10;;;6.20;99.90;;;;;;4939512;28;20347;-59
2022/01/28 11:17:49;;;;;;;15.90;3.03;;;6.20;99.90;;;;;;4938228;28;20725;-60
2022/01/28 11:20:20;;;;;;;22.37;4.07;;;6.20;99.90;;;;;;4940421;28;20288;-59
2022/01/28 11:22:57;;;;;;;16.27;3.13;;;6.30;99.90;;;;;;4925568;28;20272;-59
2022/01/28 11:25:36;;;;;;;21.37;3.73;;;6.30;99.90;;;;;;4926503;28;20209;-59
2022/01/28 11:28:08;;;;;;;24.17;4.33;;;6.30;99.90;;;;;;4940191;28;21002;-59
2022/01/28 11:30:35;;;;;;;20.47;2.90;;;6.40;99.90;;;;;;4938968;28;20219;-60
2022/01/28 11:33:05;;;;;;;9.13;2.60;;;6.40;99.90;;;;;;4953832;28;20207;-60
2022/01/28 11:35:36;;;;;;;23.17;3.93;;;6.40;99.90;;;;;;4946876;28;20567;-60
2022/01/28 11:38:35;;;;;;;16.07;2.87;;;6.40;99.90;;;;;;4928629;28;21119;-60
2022/01/28 11:41:08;;;;;;;21.13;3.87;;;6.40;99.90;;;;;;4913835;28;20704;-60
2022/01/28 11:43:49;;;;;;;17.20;3.50;;;6.40;99.90;;;;;;4937992;28;20227;-60
2022/01/28 11:46:27;;;;;;;16.43;3.27;;;6.40;99.90;;;;;;4936935;28;20203;-60
2022/01/28 11:49:22;;;;;;;23.30;3.03;;;6.40;99.90;;;;;;4944617;28;20237;-60
2022/01/28 11:51:50;;;;;;;10.20;2.73;;;6.30;99.90;;;;;;4957794;28;20233;-60
2022/01/28 11:54:21;;;;;;;12.63;2.47;;;6.40;99.90;;;;;;4937500;28;20224;-60
2022/01/28 11:57:16;;;;;;;17.67;3.47;;;6.40;99.90;;;;;;4926144;28;20306;-60
2022/01/28 11:59:46;;;;;;;18.17;2.93;;;6.50;99.90;;;;;;4938486;28;20365;-59
2022/01/28 12:02:21;;;;;;;12.80;3.07;;;6.50;99.90;;;;;;4923142;28;20208;-60
2022/01/28 12:04:48;;;;;;;13.47;3.57;;;6.60;99.90;;;;;;4943610;28;20321;-60
2022/01/28 12:07:18;;;;;;;12.00;3.00;;;6.60;99.90;;;;;;4930462;28;20253;-59
2022/01/28 12:09:48;;;;;;;20.37;3.70;;;6.70;99.90;;;;;;4946974;28;20290;-59
2022/01/28 12:12:38;;;;;;;15.53;3.17;;;6.70;99.90;;;;;;4922809;23;20243;-59
2022/01/28 12:15:13;;;;;;;28.87;3.30;;;6.70;99.90;;;;;;4946942;28;20592;-59
2022/01/28 12:17:45;;;;;;;15.83;2.73;;;6.60;99.90;;;;;;4950765;28;20234;-58
2022/01/28 12:20:22;;;;;;;18.37;2.70;;;6.60;99.90;;;;;;4962370;28;20219;-59
2022/01/28 12:23:37;;;;;;;19.00;3.47;;;6.60;99.90;;;;;;4959946;28;20327;-60
2022/01/28 12:26:04;;;;;;;12.43;3.00;;;6.60;99.90;;;;;;4949502;28;21671;-59
2022/01/28 12:28:48;;;;;;;9.47;2.47;;;6.60;99.90;;;;;;4957442;28;20229;-59
2022/01/28 12:31:21;;;;;;;9.57;2.93;;;6.60;99.90;;;;;;4976404;28;20409;-60
2022/01/28 12:33:51;;;;;;;15.70;2.70;;;6.60;99.90;;;;;;4967965;28;20199;-59
2022/01/28 12:36:21;;;;;;;12.57;2.40;;;6.60;99.90;;;;;;4969108;28;20699;-59
2022/01/28 12:39:00;;;;;;;17.87;3.07;;;6.60;99.90;;;;;;4962535;28;20265;-59
2022/01/28 12:41:29;;;;;;;19.07;3.23;;;6.60;99.90;;;;;;4965671;28;20204;-60
2022/01/28 12:43:56;;;;;;;13.90;3.37;;;6.60;99.90;;;;;;4932199;28;20341;-59
2022/01/28 12:46:27;;;;;;;16.47;2.87;;;6.60;99.90;;;;;;4978729;28;20351;-59
2022/01/28 12:48:58;;;;;;;10.87;2.70;;;6.60;99.90;;;;;;4958097;28;20258;-60
2022/01/28 12:51:26;;;;;;;24.27;3.13;;;6.60;99.90;;;;;;4956808;28;20362;-60
2022/01/28 12:53:55;;;;;;;13.93;2.70;;;6.70;99.90;;;;;;4957727;28;20208;-59
2022/01/28 12:56:31;;;;;;;18.50;3.13;;;6.70;99.90;;;;;;4964613;28;20223;-60
2022/01/28 12:58:58;;;;;;;12.50;2.67;;;6.70;99.90;;;;;;4937361;28;20239;-60
2022/01/28 13:01:27;;;;;;;22.33;2.90;;;6.70;99.90;;;;;;4941188;28;20220;-59
2022/01/28 13:04:05;;;;;;;9.30;2.20;;;6.70;99.90;;;;;;4949917;28;20204;-60
2022/01/28 13:06:43;;;;;;;18.30;3.10;;;6.60;99.90;;;;;;4944406;28;20223;-60
2022/01/28 13:09:13;;;;;;;14.07;2.97;;;6.60;99.90;;;;;;4939908;28;20371;-61
2022/01/28 13:11:43;;;;;;;12.97;3.37;;;6.60;99.90;;;;;;4965467;28;20912;-60
2022/01/28 13:14:11;;;;;;;20.07;3.10;;;6.60;99.90;;;;;;4952824;28;20250;-59
2022/01/28 13:16:42;;;;;;;12.00;3.00;;;6.60;99.90;;;;;;4963307;28;20200;-60
2022/01/28 13:19:10;;;;;;;16.27;3.17;;;6.60;99.90;;;;;;4958990;28;20223;-60
2022/01/28 13:21:38;;;;;;;7.83;1.90;;;6.60;99.90;;;;;;4961025;28;20211;-60
2022/01/28 13:24:07;;;;;;;11.70;2.23;;;6.60;99.90;;;;;;4948782;28;21069;-60
2022/01/28 13:26:34;;;;;;;11.50;2.73;;;6.60;99.90;;;;;;4966215;28;20234;-60
2022/01/28 13:29:06;;;;;;;15.70;2.57;;;6.70;99.90;;;;;;4974963;28;20320;-60
2022/01/28 13:31:33;;;;;;;8.27;2.07;;;6.70;99.90;;;;;;4922770;28;20221;-60
2022/01/28 13:34:04;;;;;;;15.70;2.70;;;6.70;99.90;;;;;;4960183;28;20215;-60
2022/01/28 13:36:45;;;;;;;15.67;2.80;;;6.70;99.90;;;;;;4949887;28;20315;-60
2022/01/28 13:39:20;;;;;;;16.93;2.57;;;6.70;99.90;;;;;;4941891;28;21055;-60
2022/01/28 13:41:51;;;;;;;17.30;3.47;;;6.70;99.90;;;;;;4962664;28;21370;-60
2022/01/28 13:44:26;;;;;;;21.47;3.83;;;6.70;99.90;;;;;;4959953;28;20281;-60
2022/01/28 13:47:02;;;;;;;18.67;3.27;;;6.70;99.90;;;;;;4922079;28;20207;-59
2022/01/28 13:49:35;;;;;;;18.70;3.20;;;6.70;99.90;;;;;;4972800;28;20240;-65
2022/01/28 13:52:11;;;;;;;12.43;2.63;;;6.70;99.90;;;;;;4949893;28;20276;-59
2022/01/28 13:54:38;;;;;;;12.73;3.20;;;6.70;99.90;;;;;;4959150;28;20207;-59
2022/01/28 13:57:07;;;;;;;20.83;4.03;;;6.70;99.90;;;;;;4950169;28;20214;-59
2022/01/28 13:59:36;;;;;;;18.63;3.70;;;6.70;99.90;;;;;;4949212;28;20207;-60
2022/01/28 14:02:10;;;;;;;15.70;3.03;;;6.70;99.90;;;;;;4929148;28;20217;-59
2022/01/28 14:04:41;;;;;;;13.27;2.73;;;6.70;99.90;;;;;;4962231;28;20230;-59
2022/01/28 14:07:10;;;;;;;17.60;3.50;;;6.70;99.90;;;;;;4946559;28;20842;-59